首页
METAR-TAF:

METAR-TAF

机场 :

萨尔布吕肯机场

萨尔布吕肯, 德国

纬度: 49-13N, 经度: 007-07E, 海拔: 322米

当前天气观测

该预报发布于18分钟前的13:50 UTC
风速6节,风向东北,在北转西北之间变化
温度 21°C
湿度 46%
气压 1017 hPa
能见度10公里或以上
1500米以下无云,无积雨云

METAR: EDDR 041350Z 05006KT 340V080 CAVOK 21/09 Q1017 NOSIG

时间: 16:08 (14:08 UTC)

预报

该预报发布于3小时和8分钟前的11:00 UTC
预报有效从04日的 12点(UTC)到 05日的 12点(UTC)
风速5节,风向北转西北
能见度10公里或以上
少量云层高于3000英尺
成为
从 04日的 17点(UTC)到 04日的 19点(UTC)
风速3节,风向多变
成为
从 05日的 06点(UTC)到 05日的 08点(UTC)
风速5节,风向东转东南

TAF: EDDR 041100Z 0412/0512 34005KT 9999 FEW030 BECMG 0417/0419 VRB03KT BECMG 0506/0508 12005KT

超过4000个机场的气象观测和天气预报(METAR&TAF报告)。

可查询的气象台以黄色和红色小点在地图上表示。

将鼠标移到小点上方,可查看气象台名称。

然后点击查看天气观测和预报。

如需切换地图:点击带黑十字的绿色按钮放大地图;点击带横线的绿色按钮缩小地图;或者点击绿色箭头查看邻近地区的地图。


METAR-TAF: